createdAt,value
2023-02-22T00:02:29.554Z,73.90
2023-02-22T00:07:31.663Z,75.39
2023-02-22T00:12:33.890Z,75.60
2023-02-22T00:17:36.526Z,75.55
2023-02-22T00:22:38.605Z,75.78
2023-02-22T00:27:41.178Z,75.44
2023-02-22T00:32:43.358Z,73.77
2023-02-22T00:37:48.850Z,74.57
2023-02-22T00:42:51.276Z,74.09
2023-02-22T00:47:54.653Z,74.96
2023-02-22T00:52:58.569Z,75.52
2023-02-22T00:58:02.094Z,75.32
2023-02-22T01:03:08.212Z,74.78
2023-02-22T01:08:13.632Z,74.96
2023-02-22T01:13:18.349Z,75.09
2023-02-22T01:18:21.983Z,73.55
2023-02-22T01:23:24.123Z,72.72
2023-02-22T01:28:26.426Z,72.24
2023-02-22T01:33:28.813Z,71.42
2023-02-22T01:38:30.919Z,71.75
2023-02-22T01:43:33.345Z,72.37
2023-02-22T01:48:38.427Z,72.66
2023-02-22T01:53:47.665Z,73.69
2023-02-22T01:58:56.519Z,73.79
2023-02-22T02:04:03.663Z,74.04
2023-02-22T02:09:20.235Z,74.10
2023-02-22T02:14:22.389Z,73.22
2023-02-22T02:19:30.743Z,73.04
2023-02-22T02:24:57.520Z,72.23
2023-02-22T02:29:59.577Z,72.77
2023-02-22T02:35:07.594Z,72.43
2023-02-22T02:40:21.662Z,72.81
2023-02-22T02:45:34.303Z,73.48
2023-02-22T02:50:45.227Z,73.29
2023-02-22T02:55:47.404Z,73.63
2023-02-22T03:00:55.559Z,74.18
2023-02-22T03:06:38.331Z,74.03
2023-02-22T03:12:05.844Z,74.07
2023-02-22T03:17:16.268Z,73.80
2023-02-22T03:22:27.848Z,73.48
2023-02-22T03:27:37.079Z,73.19
2023-02-22T03:32:43.242Z,72.69
2023-02-22T03:37:49.269Z,72.24
2023-02-22T03:42:59.278Z,71.58
2023-02-22T03:48:14.885Z,71.64
2023-02-22T03:53:19.246Z,71.70
2023-02-22T03:58:24.345Z,72.16
2023-02-22T04:03:26.478Z,71.20
2023-02-22T04:08:28.585Z,71.25
2023-02-22T04:13:30.750Z,71.14
2023-02-22T04:18:33.030Z,70.89
2023-02-22T04:23:35.223Z,71.29
2023-02-22T04:28:37.405Z,71.63
2023-02-22T04:33:39.537Z,71.97
2023-02-22T04:38:42.509Z,73.17
2023-02-22T04:43:44.768Z,74.67
2023-02-22T04:48:47.035Z,75.03
2023-02-22T04:53:49.267Z,75.83
2023-02-22T04:58:51.469Z,75.55
2023-02-22T05:03:53.614Z,75.26
2023-02-22T05:08:56.226Z,74.93
2023-02-22T05:13:58.388Z,75.10
2023-02-22T05:19:00.512Z,75.30
2023-02-22T05:24:02.704Z,75.83
2023-02-22T05:29:05.131Z,77.45
2023-02-22T05:34:07.451Z,78.66
2023-02-22T05:39:09.662Z,79.36
2023-02-22T05:44:11.803Z,80.03
2023-02-22T05:49:13.974Z,80.11
2023-02-22T05:54:16.122Z,80.30
2023-02-22T05:59:18.281Z,78.95
2023-02-22T06:04:20.392Z,77.97
2023-02-22T06:09:23.482Z,77.38
2023-02-22T06:14:25.643Z,76.20
2023-02-22T06:19:28.012Z,75.24
2023-02-22T06:24:30.143Z,74.96
2023-02-22T06:29:32.832Z,74.26
2023-02-22T06:34:35.023Z,73.22
2023-02-22T06:39:37.159Z,72.48
2023-02-22T06:44:39.258Z,71.21
2023-02-22T06:49:41.394Z,70.60
2023-02-22T06:54:43.528Z,70.20
2023-02-22T06:59:45.683Z,69.83
2023-02-22T07:04:50.875Z,69.12
2023-02-22T07:09:53.162Z,69.48
2023-02-22T07:14:56.529Z,71.19
2023-02-22T07:19:58.619Z,72.20
2023-02-22T07:25:00.715Z,72.61
2023-02-22T07:30:03.016Z,72.41
2023-02-22T07:35:05.417Z,70.99
2023-02-22T07:40:07.847Z,71.29
2023-02-22T07:45:10.075Z,71.14
2023-02-22T07:50:16.525Z,70.03
2023-02-22T07:55:21.305Z,70.01
2023-02-22T08:00:27.691Z,70.14
2023-02-22T08:05:31.220Z,70.41
2023-02-22T08:10:35.376Z,70.49
2023-02-22T08:15:40.108Z,70.03
2023-02-22T08:20:44.134Z,69.80
2023-02-22T08:25:46.416Z,69.34
2023-02-22T08:30:48.996Z,67.73
2023-02-22T08:35:51.794Z,65.94
2023-02-22T08:40:54.135Z,63.29
2023-02-22T08:45:57.728Z,60.35
2023-02-22T08:51:00.258Z,58.14
2023-02-22T08:56:02.405Z,55.43
2023-02-22T09:01:04.728Z,54.98
2023-02-22T09:06:08.089Z,54.35
2023-02-22T09:11:10.413Z,54.25
2023-02-22T09:16:12.861Z,53.08
2023-02-22T09:21:15.450Z,53.76
2023-02-22T09:26:17.842Z,52.77
2023-02-22T09:31:20.527Z,52.85
2023-02-22T09:36:25.167Z,51.85
2023-02-22T09:41:39.396Z,51.27
2023-02-22T09:46:45.765Z,50.33
2023-02-22T09:51:49.433Z,51.18
2023-02-22T09:56:56.151Z,48.74
2023-02-22T10:02:27.858Z,47.10
2023-02-22T10:07:40.496Z,46.62
2023-02-22T10:12:59.384Z,44.55
2023-02-22T10:18:32.861Z,39.44
2023-02-22T10:23:46.542Z,41.48
2023-02-22T10:29:17.388Z,44.33
2023-02-22T10:34:24.919Z,42.69
2023-02-22T10:39:36.084Z,42.78
2023-02-22T10:44:39.816Z,43.43
2023-02-22T10:49:47.023Z,42.42
2023-02-22T10:54:51.861Z,43.84
2023-02-22T10:59:57.159Z,44.64
2023-02-22T11:05:01.123Z,49.16
2023-02-22T11:10:09.600Z,51.34
2023-02-22T11:15:18.844Z,52.58
2023-02-22T11:20:34.510Z,53.07
2023-02-22T11:25:39.510Z,54.37
2023-02-22T11:30:44.580Z,52.67
2023-02-22T11:35:55.180Z,52.97
2023-02-22T11:41:11.505Z,53.29
2023-02-22T11:46:18.513Z,55.32
2023-02-22T11:51:29.462Z,55.93
2023-02-22T11:56:40.222Z,56.03
2023-02-22T12:02:08.749Z,56.45
2023-02-22T12:07:17.932Z,56.87
2023-02-22T12:12:25.843Z,57.94
2023-02-22T12:17:39.031Z,57.42
2023-02-22T12:22:58.195Z,56.87
2023-02-22T12:28:24.181Z,56.10
2023-02-22T12:33:33.393Z,54.82
2023-02-22T12:38:40.264Z,53.99
2023-02-22T12:43:55.009Z,53.77
2023-02-22T12:49:24.790Z,52.94
2023-02-22T12:54:48.223Z,53.17
2023-02-22T12:59:54.991Z,52.80
2023-02-22T13:04:57.555Z,55.66
2023-02-22T13:10:31.361Z,56.46
2023-02-22T13:15:46.746Z,56.47
2023-02-22T13:23:54.078Z,55.88
2023-02-22T13:29:13.939Z,55.88
2023-02-22T13:34:37.016Z,56.62
2023-02-22T13:39:42.045Z,55.81
2023-02-22T13:45:04.126Z,56.68
2023-02-22T13:50:25.418Z,56.96
2023-02-22T13:55:34.670Z,57.15
2023-02-22T14:00:48.222Z,57.13
2023-02-22T14:05:52.946Z,58.06
2023-02-22T14:10:56.096Z,57.41
2023-02-22T14:16:17.098Z,56.13
2023-02-22T14:21:22.303Z,57.43
2023-02-22T14:26:27.347Z,58.38
2023-02-22T14:31:56.237Z,58.47
2023-02-22T14:37:05.290Z,59.40
2023-02-22T14:42:31.650Z,60.33
2023-02-22T14:47:41.164Z,60.98
2023-02-22T14:52:46.648Z,61.27
2023-02-22T14:57:59.314Z,61.51
2023-02-22T15:03:02.076Z,61.55
2023-02-22T15:08:07.607Z,61.90
2023-02-22T15:13:27.940Z,61.52
2023-02-22T15:18:51.740Z,61.31
2023-02-22T15:24:01.575Z,61.55
2023-02-22T15:29:16.898Z,60.54
2023-02-22T15:34:24.738Z,60.15
2023-02-22T15:39:33.183Z,59.33
2023-02-22T15:44:37.552Z,58.40
2023-02-22T15:49:39.841Z,59.49
2023-02-22T15:54:46.086Z,60.17
2023-02-22T15:59:55.999Z,61.53
2023-02-22T16:05:02.185Z,61.72
2023-02-22T16:10:09.420Z,60.21
2023-02-22T16:15:17.756Z,60.82
2023-02-22T16:20:24.890Z,62.20
2023-02-22T16:25:35.449Z,61.31
2023-02-22T16:30:40.050Z,61.94
2023-02-22T16:35:52.035Z,62.03
2023-02-22T16:40:56.402Z,62.56
2023-02-22T16:46:01.671Z,62.77
2023-02-22T16:51:19.151Z,62.79
2023-02-22T16:56:29.611Z,63.15
2023-02-22T17:01:35.249Z,63.49
2023-02-22T17:06:37.565Z,63.59
2023-02-22T17:11:40.116Z,64.88
2023-02-22T17:16:42.198Z,66.11
2023-02-22T17:21:44.978Z,66.70
2023-02-22T17:26:47.132Z,67.76
2023-02-22T17:31:49.477Z,68.17
2023-02-22T17:36:51.695Z,69.16
2023-02-22T17:41:57.805Z,70.13
2023-02-22T17:47:00.284Z,69.23
2023-02-22T17:52:06.207Z,69.40
2023-02-22T17:57:08.442Z,69.31
2023-02-22T18:02:10.973Z,68.28
2023-02-22T18:07:14.340Z,68.66
2023-02-22T18:12:16.551Z,68.88
2023-02-22T18:17:18.679Z,68.97
2023-02-22T18:22:20.806Z,69.21
2023-02-22T18:27:25.908Z,68.11
2023-02-22T18:32:30.984Z,68.04
2023-02-22T18:37:33.789Z,67.58
2023-02-22T18:42:37.425Z,67.58
2023-02-22T18:47:42.255Z,67.18
2023-02-22T18:52:45.914Z,67.79
2023-02-22T18:57:50.722Z,68.09
2023-02-22T19:02:53.774Z,67.81
2023-02-22T19:07:55.904Z,67.59
2023-02-22T19:12:57.992Z,67.04
2023-02-22T19:18:00.299Z,67.45
2023-02-22T19:23:03.315Z,66.63
2023-02-22T19:28:05.477Z,65.98
2023-02-22T19:33:08.039Z,66.09
2023-02-22T19:38:10.243Z,65.64
2023-02-22T19:43:14.270Z,65.20
2023-02-22T19:48:17.065Z,64.80
2023-02-22T19:53:19.174Z,63.18
2023-02-22T19:58:21.256Z,62.81
2023-02-22T20:03:25.737Z,62.61
2023-02-22T20:08:28.009Z,62.29
2023-02-22T20:13:30.425Z,62.33
2023-02-22T20:18:32.692Z,61.57
2023-02-22T20:23:35.219Z,63.32
2023-02-22T20:28:37.405Z,63.29
2023-02-22T20:33:41.960Z,63.05
2023-02-22T20:38:45.372Z,62.19
2023-02-22T20:43:51.731Z,63.26
2023-02-22T20:48:55.725Z,63.49
2023-02-22T20:53:59.883Z,63.91
2023-02-22T20:59:03.970Z,64.58
2023-02-22T21:04:08.089Z,65.33
2023-02-22T21:09:19.538Z,65.44
2023-02-22T21:14:23.864Z,65.04
2023-02-22T21:19:26.191Z,63.87
2023-02-22T21:24:29.536Z,62.44
2023-02-22T21:29:34.680Z,60.80
2023-02-22T21:34:37.377Z,61.37
2023-02-22T21:39:39.609Z,61.84
2023-02-22T21:44:42.257Z,62.55
2023-02-22T21:49:44.770Z,62.21
2023-02-22T21:54:47.093Z,63.69
2023-02-22T21:59:49.215Z,64.09
2023-02-22T22:04:51.750Z,63.15
2023-02-22T22:09:56.729Z,62.44
2023-02-22T22:14:58.851Z,62.61
2023-02-22T22:20:04.943Z,62.48
2023-02-22T22:25:07.582Z,62.57
2023-02-22T22:30:16.824Z,62.72
2023-02-22T22:35:19.023Z,63.08
2023-02-22T22:40:21.193Z,63.10
2023-02-22T22:45:23.374Z,63.85
2023-02-22T22:50:26.598Z,63.69
2023-02-22T22:55:28.775Z,63.78
2023-02-22T23:00:41.409Z,64.17
2023-02-22T23:05:43.595Z,64.72
2023-02-22T23:10:46.702Z,64.50
2023-02-22T23:15:49.308Z,64.75
2023-02-22T23:20:55.406Z,64.68
2023-02-22T23:26:11.951Z,65.05
2023-02-22T23:31:17.362Z,65.06
2023-02-22T23:36:20.051Z,64.45
2023-02-22T23:41:25.218Z,64.18
2023-02-22T23:46:32.838Z,63.75
2023-02-22T23:51:39.352Z,64.81
2023-02-22T23:56:53.673Z,65.03
